sensor_id;sensor_type;location;lat;lon;timestamp;temperature;humidity
10155;DHT22;5118;48.570;7.916;2023-04-25T00:00:52;9.80;99.90
10155;DHT22;5118;48.570;7.916;2023-04-25T00:03:21;9.80;99.90
10155;DHT22;5118;48.570;7.916;2023-04-25T00:05:49;9.80;99.90
10155;DHT22;5118;48.570;7.916;2023-04-25T00:08:18;9.70;99.90
10155;DHT22;5118;48.570;7.916;2023-04-25T00:10:47;9.70;99.90
10155;DHT22;5118;48.570;7.916;2023-04-25T00:13:15;9.60;99.90
10155;DHT22;5118;48.570;7.916;2023-04-25T00:15:45;9.60;99.90
10155;DHT22;5118;48.570;7.916;2023-04-25T00:18:15;9.60;99.90
10155;DHT22;5118;48.570;7.916;2023-04-25T00:20:44;9.50;99.90
10155;DHT22;5118;48.570;7.916;2023-04-25T00:23:13;9.50;99.90
10155;DHT22;5118;48.570;7.916;2023-04-25T00:25:44;9.40;99.90
10155;DHT22;5118;48.570;7.916;2023-04-25T00:28:13;9.40;99.90
10155;DHT22;5118;48.570;7.916;2023-04-25T00:30:42;9.30;99.90
10155;DHT22;5118;48.570;7.916;2023-04-25T00:33:12;9.30;99.90
10155;DHT22;5118;48.570;7.916;2023-04-25T00:35:41;9.20;99.90
10155;DHT22;5118;48.570;7.916;2023-04-25T00:38:10;9.20;99.90
10155;DHT22;5118;48.570;7.916;2023-04-25T00:40:38;9.20;99.90
10155;DHT22;5118;48.570;7.916;2023-04-25T00:43:06;9.20;99.90
10155;DHT22;5118;48.570;7.916;2023-04-25T00:45:38;9.20;99.90
10155;DHT22;5118;48.570;7.916;2023-04-25T00:48:07;9.20;99.90
10155;DHT22;5118;48.570;7.916;2023-04-25T00:50:38;9.30;99.90
10155;DHT22;5118;48.570;7.916;2023-04-25T00:53:08;9.30;99.90
10155;DHT22;5118;48.570;7.916;2023-04-25T00:55:37;9.30;99.90
10155;DHT22;5118;48.570;7.916;2023-04-25T00:58:06;9.40;99.90
10155;DHT22;5118;48.570;7.916;2023-04-25T01:00:35;9.40;99.90
10155;DHT22;5118;48.570;7.916;2023-04-25T01:03:05;9.40;99.90
10155;DHT22;5118;48.570;7.916;2023-04-25T01:05:34;9.50;99.90
10155;DHT22;5118;48.570;7.916;2023-04-25T01:08:05;9.50;99.90
10155;DHT22;5118;48.570;7.916;2023-04-25T01:10:34;9.50;99.90
10155;DHT22;5118;48.570;7.916;2023-04-25T01:13:03;9.40;99.90
10155;DHT22;5118;48.570;7.916;2023-04-25T01:15:32;9.50;99.90
10155;DHT22;5118;48.570;7.916;2023-04-25T01:18:03;9.50;99.90
10155;DHT22;5118;48.570;7.916;2023-04-25T01:20:32;9.40;99.90
10155;DHT22;5118;48.570;7.916;2023-04-25T01:23:03;9.50;99.90
10155;DHT22;5118;48.570;7.916;2023-04-25T01:25:31;9.50;99.90
10155;DHT22;5118;48.570;7.916;2023-04-25T01:28:00;9.40;99.90
10155;DHT22;5118;48.570;7.916;2023-04-25T01:30:29;9.40;99.90
10155;DHT22;5118;48.570;7.916;2023-04-25T01:32:57;9.40;99.90
10155;DHT22;5118;48.570;7.916;2023-04-25T01:35:28;9.40;99.90
10155;DHT22;5118;48.570;7.916;2023-04-25T01:37:57;9.40;99.90
10155;DHT22;5118;48.570;7.916;2023-04-25T01:40:27;9.40;99.90
10155;DHT22;5118;48.570;7.916;2023-04-25T01:42:56;9.40;99.90
10155;DHT22;5118;48.570;7.916;2023-04-25T01:45:25;9.40;99.90
10155;DHT22;5118;48.570;7.916;2023-04-25T01:47:53;9.40;99.90
10155;DHT22;5118;48.570;7.916;2023-04-25T01:50:22;9.40;99.90
10155;DHT22;5118;48.570;7.916;2023-04-25T01:52:51;9.30;99.90
10155;DHT22;5118;48.570;7.916;2023-04-25T01:55:19;9.40;99.90
10155;DHT22;5118;48.570;7.916;2023-04-25T01:58:02;9.40;99.90
10155;DHT22;5118;48.570;7.916;2023-04-25T02:00:59;9.40;99.90
10155;DHT22;5118;48.570;7.916;2023-04-25T02:03:34;9.30;99.90
10155;DHT22;5118;48.570;7.916;2023-04-25T02:06:06;9.30;99.90
10155;DHT22;5118;48.570;7.916;2023-04-25T02:08:38;9.30;99.90
10155;DHT22;5118;48.570;7.916;2023-04-25T02:11:06;9.20;99.90
10155;DHT22;5118;48.570;7.916;2023-04-25T02:13:42;9.20;99.90
10155;DHT22;5118;48.570;7.916;2023-04-25T02:16:35;9.10;99.90
10155;DHT22;5118;48.570;7.916;2023-04-25T02:19:06;9.10;99.90
10155;DHT22;5118;48.570;7.916;2023-04-25T02:21:35;9.00;99.90
10155;DHT22;5118;48.570;7.916;2023-04-25T02:24:04;8.90;99.90
10155;DHT22;5118;48.570;7.916;2023-04-25T02:26:33;8.80;99.90
10155;DHT22;5118;48.570;7.916;2023-04-25T02:29:03;8.70;99.90
10155;DHT22;5118;48.570;7.916;2023-04-25T02:31:33;8.60;99.90
10155;DHT22;5118;48.570;7.916;2023-04-25T02:34:02;8.50;99.90
10155;DHT22;5118;48.570;7.916;2023-04-25T02:36:30;8.40;99.90
10155;DHT22;5118;48.570;7.916;2023-04-25T02:39:01;8.40;99.90
10155;DHT22;5118;48.570;7.916;2023-04-25T02:41:30;8.30;99.90
10155;DHT22;5118;48.570;7.916;2023-04-25T02:43:58;8.40;99.90
10155;DHT22;5118;48.570;7.916;2023-04-25T02:46:28;8.40;99.90
10155;DHT22;5118;48.570;7.916;2023-04-25T02:49:05;8.40;99.90
10155;DHT22;5118;48.570;7.916;2023-04-25T02:51:35;8.50;99.90
10155;DHT22;5118;48.570;7.916;2023-04-25T02:54:04;8.60;99.90
10155;DHT22;5118;48.570;7.916;2023-04-25T02:56:38;8.60;99.90
10155;DHT22;5118;48.570;7.916;2023-04-25T02:59:11;8.70;99.90
10155;DHT22;5118;48.570;7.916;2023-04-25T03:01:41;8.70;99.90
10155;DHT22;5118;48.570;7.916;2023-04-25T03:04:09;8.80;99.90
10155;DHT22;5118;48.570;7.916;2023-04-25T03:06:39;8.80;99.90
10155;DHT22;5118;48.570;7.916;2023-04-25T03:09:08;8.90;99.90
10155;DHT22;5118;48.570;7.916;2023-04-25T03:11:38;8.90;99.90
10155;DHT22;5118;48.570;7.916;2023-04-25T03:14:06;9.00;99.90
10155;DHT22;5118;48.570;7.916;2023-04-25T03:16:34;8.90;99.90
10155;DHT22;5118;48.570;7.916;2023-04-25T03:19:04;9.00;99.90
10155;DHT22;5118;48.570;7.916;2023-04-25T03:21:35;9.00;99.90
10155;DHT22;5118;48.570;7.916;2023-04-25T03:24:04;9.00;99.90
10155;DHT22;5118;48.570;7.916;2023-04-25T03:26:33;9.00;99.90
10155;DHT22;5118;48.570;7.916;2023-04-25T03:29:01;8.90;99.90
10155;DHT22;5118;48.570;7.916;2023-04-25T03:31:30;8.90;99.90
10155;DHT22;5118;48.570;7.916;2023-04-25T03:33:59;8.90;99.90
10155;DHT22;5118;48.570;7.916;2023-04-25T03:36:29;8.90;99.90
10155;DHT22;5118;48.570;7.916;2023-04-25T03:38:57;8.90;99.90
10155;DHT22;5118;48.570;7.916;2023-04-25T03:41:27;8.80;99.90
10155;DHT22;5118;48.570;7.916;2023-04-25T03:44:02;8.80;99.90
10155;DHT22;5118;48.570;7.916;2023-04-25T03:46:30;8.80;99.90
10155;DHT22;5118;48.570;7.916;2023-04-25T03:48:59;8.80;99.90
10155;DHT22;5118;48.570;7.916;2023-04-25T03:51:45;8.80;99.90
10155;DHT22;5118;48.570;7.916;2023-04-25T03:54:15;8.80;99.90
10155;DHT22;5118;48.570;7.916;2023-04-25T03:56:54;8.80;99.90
10155;DHT22;5118;48.570;7.916;2023-04-25T03:59:26;8.80;99.90
10155;DHT22;5118;48.570;7.916;2023-04-25T04:01:55;8.70;99.90
10155;DHT22;5118;48.570;7.916;2023-04-25T04:04:24;8.70;99.90
10155;DHT22;5118;48.570;7.916;2023-04-25T04:06:54;8.60;99.90
10155;DHT22;5118;48.570;7.916;2023-04-25T04:09:28;8.60;99.90
10155;DHT22;5118;48.570;7.916;2023-04-25T04:11:59;8.50;99.90
10155;DHT22;5118;48.570;7.916;2023-04-25T04:14:30;8.50;99.90
10155;DHT22;5118;48.570;7.916;2023-04-25T04:16:58;8.40;99.90
10155;DHT22;5118;48.570;7.916;2023-04-25T04:19:27;8.40;99.90
10155;DHT22;5118;48.570;7.916;2023-04-25T04:22:17;8.40;99.90
10155;DHT22;5118;48.570;7.916;2023-04-25T04:24:47;8.30;99.90
10155;DHT22;5118;48.570;7.916;2023-04-25T04:27:27;8.20;99.90
10155;DHT22;5118;48.570;7.916;2023-04-25T04:30:16;8.20;99.90
10155;DHT22;5118;48.570;7.916;2023-04-25T04:32:53;8.20;99.90
10155;DHT22;5118;48.570;7.916;2023-04-25T04:35:22;8.20;99.90
10155;DHT22;5118;48.570;7.916;2023-04-25T04:37:53;8.30;99.90
10155;DHT22;5118;48.570;7.916;2023-04-25T04:40:25;8.40;99.90
10155;DHT22;5118;48.570;7.916;2023-04-25T04:43:08;8.40;99.90
10155;DHT22;5118;48.570;7.916;2023-04-25T04:45:56;8.50;99.90
10155;DHT22;5118;48.570;7.916;2023-04-25T04:48:53;8.60;99.90
10155;DHT22;5118;48.570;7.916;2023-04-25T04:52:01;8.70;99.90
10155;DHT22;5118;48.570;7.916;2023-04-25T04:54:50;8.70;99.90
10155;DHT22;5118;48.570;7.916;2023-04-25T04:57:42;8.80;99.90
10155;DHT22;5118;48.570;7.916;2023-04-25T05:00:39;8.80;99.90
10155;DHT22;5118;48.570;7.916;2023-04-25T05:03:26;8.90;99.90
10155;DHT22;5118;48.570;7.916;2023-04-25T05:06:07;8.90;99.90
10155;DHT22;5118;48.570;7.916;2023-04-25T05:09:08;9.00;99.90
10155;DHT22;5118;48.570;7.916;2023-04-25T05:12:04;9.00;99.90
10155;DHT22;5118;48.570;7.916;2023-04-25T05:14:51;9.00;99.90
10155;DHT22;5118;48.570;7.916;2023-04-25T05:17:31;9.10;99.90
10155;DHT22;5118;48.570;7.916;2023-04-25T05:20:00;9.00;99.90
10155;DHT22;5118;48.570;7.916;2023-04-25T05:22:49;9.10;99.90
10155;DHT22;5118;48.570;7.916;2023-04-25T05:25:40;9.10;99.90
10155;DHT22;5118;48.570;7.916;2023-04-25T05:28:23;9.10;99.90
10155;DHT22;5118;48.570;7.916;2023-04-25T05:31:03;9.20;99.90
10155;DHT22;5118;48.570;7.916;2023-04-25T05:33:43;9.20;99.90
10155;DHT22;5118;48.570;7.916;2023-04-25T05:36:12;9.20;99.90
10155;DHT22;5118;48.570;7.916;2023-04-25T05:38:40;9.30;99.90
10155;DHT22;5118;48.570;7.916;2023-04-25T05:41:28;9.30;99.90
10155;DHT22;5118;48.570;7.916;2023-04-25T05:44:14;9.30;99.90
10155;DHT22;5118;48.570;7.916;2023-04-25T05:47:08;9.40;99.90
10155;DHT22;5118;48.570;7.916;2023-04-25T05:49:59;9.40;99.90
10155;DHT22;5118;48.570;7.916;2023-04-25T05:52:52;9.40;99.90
10155;DHT22;5118;48.570;7.916;2023-04-25T05:55:28;9.30;99.90
10155;DHT22;5118;48.570;7.916;2023-04-25T05:57:59;9.30;99.90
10155;DHT22;5118;48.570;7.916;2023-04-25T06:00:29;9.20;99.90
10155;DHT22;5118;48.570;7.916;2023-04-25T06:02:58;9.20;99.90
10155;DHT22;5118;48.570;7.916;2023-04-25T06:05:26;9.10;99.90
10155;DHT22;5118;48.570;7.916;2023-04-25T06:07:55;9.00;99.90
10155;DHT22;5118;48.570;7.916;2023-04-25T06:10:23;9.00;99.90
10155;DHT22;5118;48.570;7.916;2023-04-25T06:12:52;8.90;99.90
10155;DHT22;5118;48.570;7.916;2023-04-25T06:15:22;8.80;99.90
10155;DHT22;5118;48.570;7.916;2023-04-25T06:17:56;8.70;99.90
10155;DHT22;5118;48.570;7.916;2023-04-25T06:20:24;8.60;99.90
10155;DHT22;5118;48.570;7.916;2023-04-25T06:22:56;8.50;99.90
10155;DHT22;5118;48.570;7.916;2023-04-25T06:25:33;8.40;99.90
10155;DHT22;5118;48.570;7.916;2023-04-25T06:28:02;8.40;99.90
10155;DHT22;5118;48.570;7.916;2023-04-25T06:30:31;8.20;99.90
10155;DHT22;5118;48.570;7.916;2023-04-25T06:33:07;8.10;99.90
10155;DHT22;5118;48.570;7.916;2023-04-25T06:35:38;8.10;99.90
10155;DHT22;5118;48.570;7.916;2023-04-25T06:38:09;8.00;99.90
10155;DHT22;5118;48.570;7.916;2023-04-25T06:40:40;8.00;99.90
10155;DHT22;5118;48.570;7.916;2023-04-25T06:43:09;8.00;99.90
10155;DHT22;5118;48.570;7.916;2023-04-25T06:45:56;8.00;99.90
10155;DHT22;5118;48.570;7.916;2023-04-25T06:48:29;8.00;99.90
10155;DHT22;5118;48.570;7.916;2023-04-25T06:50:58;7.90;99.90
10155;DHT22;5118;48.570;7.916;2023-04-25T06:53:27;7.90;99.90
10155;DHT22;5118;48.570;7.916;2023-04-25T06:56:02;7.80;99.90
10155;DHT22;5118;48.570;7.916;2023-04-25T06:58:41;7.60;99.90
10155;DHT22;5118;48.570;7.916;2023-04-25T07:01:33;7.40;99.90
10155;DHT22;5118;48.570;7.916;2023-04-25T07:04:07;7.30;99.90
10155;DHT22;5118;48.570;7.916;2023-04-25T07:06:41;7.20;99.90
10155;DHT22;5118;48.570;7.916;2023-04-25T07:09:11;7.20;99.90
10155;DHT22;5118;48.570;7.916;2023-04-25T07:11:42;7.20;99.90
10155;DHT22;5118;48.570;7.916;2023-04-25T07:14:10;7.00;99.90
10155;DHT22;5118;48.570;7.916;2023-04-25T07:16:40;6.90;99.90
10155;DHT22;5118;48.570;7.916;2023-04-25T07:19:11;6.80;99.90
10155;DHT22;5118;48.570;7.916;2023-04-25T07:21:39;6.70;99.90
10155;DHT22;5118;48.570;7.916;2023-04-25T07:24:08;6.70;99.90
10155;DHT22;5118;48.570;7.916;2023-04-25T07:26:40;6.70;99.90
10155;DHT22;5118;48.570;7.916;2023-04-25T07:29:22;6.70;99.90
10155;DHT22;5118;48.570;7.916;2023-04-25T07:31:50;6.60;99.90
10155;DHT22;5118;48.570;7.916;2023-04-25T07:34:22;6.70;99.90
10155;DHT22;5118;48.570;7.916;2023-04-25T07:36:50;6.60;99.90
10155;DHT22;5118;48.570;7.916;2023-04-25T07:39:20;6.60;99.90
10155;DHT22;5118;48.570;7.916;2023-04-25T07:41:50;6.60;99.90
10155;DHT22;5118;48.570;7.916;2023-04-25T07:44:24;6.80;99.90
10155;DHT22;5118;48.570;7.916;2023-04-25T07:46:53;6.90;99.90
10155;DHT22;5118;48.570;7.916;2023-04-25T07:49:23;7.00;99.90
10155;DHT22;5118;48.570;7.916;2023-04-25T07:51:51;7.00;99.90
10155;DHT22;5118;48.570;7.916;2023-04-25T07:54:20;7.00;99.90
10155;DHT22;5118;48.570;7.916;2023-04-25T07:56:56;7.00;99.90
10155;DHT22;5118;48.570;7.916;2023-04-25T07:59:28;7.10;99.90
10155;DHT22;5118;48.570;7.916;2023-04-25T08:02:00;7.10;99.90
10155;DHT22;5118;48.570;7.916;2023-04-25T08:04:31;7.20;99.90
10155;DHT22;5118;48.570;7.916;2023-04-25T08:07:03;7.30;99.90
10155;DHT22;5118;48.570;7.916;2023-04-25T08:09:39;7.40;99.90
10155;DHT22;5118;48.570;7.916;2023-04-25T08:12:14;7.40;99.90
10155;DHT22;5118;48.570;7.916;2023-04-25T08:14:42;7.40;99.90
10155;DHT22;5118;48.570;7.916;2023-04-25T08:17:11;7.30;99.90
10155;DHT22;5118;48.570;7.916;2023-04-25T08:19:42;7.30;99.90
10155;DHT22;5118;48.570;7.916;2023-04-25T08:22:21;7.30;99.90
10155;DHT22;5118;48.570;7.916;2023-04-25T08:24:54;7.30;99.90
10155;DHT22;5118;48.570;7.916;2023-04-25T08:27:23;7.30;99.90
10155;DHT22;5118;48.570;7.916;2023-04-25T08:29:53;7.40;99.90
10155;DHT22;5118;48.570;7.916;2023-04-25T08:32:22;7.40;99.90
10155;DHT22;5118;48.570;7.916;2023-04-25T08:35:10;7.50;99.90
10155;DHT22;5118;48.570;7.916;2023-04-25T08:37:38;7.60;99.90
10155;DHT22;5118;48.570;7.916;2023-04-25T08:40:15;7.60;99.90
10155;DHT22;5118;48.570;7.916;2023-04-25T08:42:56;7.70;99.90
10155;DHT22;5118;48.570;7.916;2023-04-25T08:45:26;7.70;99.90
10155;DHT22;5118;48.570;7.916;2023-04-25T08:47:57;7.70;99.90
10155;DHT22;5118;48.570;7.916;2023-04-25T08:50:28;7.80;99.90
10155;DHT22;5118;48.570;7.916;2023-04-25T08:52:59;7.90;99.90
10155;DHT22;5118;48.570;7.916;2023-04-25T08:55:30;8.00;99.90
10155;DHT22;5118;48.570;7.916;2023-04-25T08:57:59;8.10;99.90
10155;DHT22;5118;48.570;7.916;2023-04-25T09:00:30;8.20;99.90
10155;DHT22;5118;48.570;7.916;2023-04-25T09:02:59;8.30;99.90
10155;DHT22;5118;48.570;7.916;2023-04-25T09:05:33;8.40;99.90
10155;DHT22;5118;48.570;7.916;2023-04-25T09:08:02;8.50;99.90
10155;DHT22;5118;48.570;7.916;2023-04-25T09:10:30;8.70;99.90
10155;DHT22;5118;48.570;7.916;2023-04-25T09:13:03;8.80;99.90
10155;DHT22;5118;48.570;7.916;2023-04-25T09:15:51;8.90;99.90
10155;DHT22;5118;48.570;7.916;2023-04-25T09:18:52;9.10;99.90
10155;DHT22;5118;48.570;7.916;2023-04-25T09:21:22;9.10;99.90
10155;DHT22;5118;48.570;7.916;2023-04-25T09:23:51;9.20;99.90
10155;DHT22;5118;48.570;7.916;2023-04-25T09:26:21;9.20;99.90
10155;DHT22;5118;48.570;7.916;2023-04-25T09:29:05;9.20;99.90
10155;DHT22;5118;48.570;7.916;2023-04-25T09:31:37;9.20;99.90
10155;DHT22;5118;48.570;7.916;2023-04-25T09:34:07;9.20;99.90
10155;DHT22;5118;48.570;7.916;2023-04-25T09:36:44;9.10;99.90
10155;DHT22;5118;48.570;7.916;2023-04-25T09:39:54;9.10;99.90
10155;DHT22;5118;48.570;7.916;2023-04-25T09:42:24;9.00;99.90
10155;DHT22;5118;48.570;7.916;2023-04-25T09:44:56;9.00;99.90
10155;DHT22;5118;48.570;7.916;2023-04-25T09:47:25;8.90;99.90
10155;DHT22;5118;48.570;7.916;2023-04-25T09:49:59;8.90;99.90
10155;DHT22;5118;48.570;7.916;2023-04-25T09:52:29;8.90;99.90
10155;DHT22;5118;48.570;7.916;2023-04-25T09:55:19;8.90;99.90
10155;DHT22;5118;48.570;7.916;2023-04-25T09:57:50;8.90;99.90
10155;DHT22;5118;48.570;7.916;2023-04-25T10:00:20;8.90;99.90
10155;DHT22;5118;48.570;7.916;2023-04-25T10:02:50;8.90;99.90
10155;DHT22;5118;48.570;7.916;2023-04-25T10:05:49;9.00;99.90
10155;DHT22;5118;48.570;7.916;2023-04-25T10:08:22;9.10;99.90
10155;DHT22;5118;48.570;7.916;2023-04-25T10:10:52;9.30;99.90
10155;DHT22;5118;48.570;7.916;2023-04-25T10:13:20;9.40;99.90
10155;DHT22;5118;48.570;7.916;2023-04-25T10:15:51;9.50;99.90
10155;DHT22;5118;48.570;7.916;2023-04-25T10:18:20;9.60;99.90
10155;DHT22;5118;48.570;7.916;2023-04-25T10:20:49;9.70;99.90
10155;DHT22;5118;48.570;7.916;2023-04-25T10:23:22;9.90;99.90
10155;DHT22;5118;48.570;7.916;2023-04-25T10:25:52;9.90;99.90
10155;DHT22;5118;48.570;7.916;2023-04-25T10:28:20;10.00;99.90
10155;DHT22;5118;48.570;7.916;2023-04-25T10:30:59;10.10;99.90
10155;DHT22;5118;48.570;7.916;2023-04-25T10:33:33;10.20;99.90
10155;DHT22;5118;48.570;7.916;2023-04-25T10:36:09;10.30;99.90
10155;DHT22;5118;48.570;7.916;2023-04-25T10:38:39;10.60;99.90
10155;DHT22;5118;48.570;7.916;2023-04-25T10:41:09;11.00;99.90
10155;DHT22;5118;48.570;7.916;2023-04-25T10:43:40;11.30;99.90
10155;DHT22;5118;48.570;7.916;2023-04-25T10:46:19;11.70;99.90
10155;DHT22;5118;48.570;7.916;2023-04-25T10:48:50;12.20;99.90
10155;DHT22;5118;48.570;7.916;2023-04-25T10:51:21;12.80;99.90
10155;DHT22;5118;48.570;7.916;2023-04-25T10:53:59;13.20;99.90
10155;DHT22;5118;48.570;7.916;2023-04-25T10:56:30;13.70;99.90
10155;DHT22;5118;48.570;7.916;2023-04-25T10:59:05;13.90;99.90
10155;DHT22;5118;48.570;7.916;2023-04-25T11:01:38;14.00;99.90
10155;DHT22;5118;48.570;7.916;2023-04-25T11:04:19;14.00;99.90
10155;DHT22;5118;48.570;7.916;2023-04-25T11:07:00;14.10;99.90
10155;DHT22;5118;48.570;7.916;2023-04-25T11:09:35;14.10;99.90
10155;DHT22;5118;48.570;7.916;2023-04-25T11:12:07;14.00;99.90
10155;DHT22;5118;48.570;7.916;2023-04-25T11:14:35;14.30;99.90
10155;DHT22;5118;48.570;7.916;2023-04-25T11:17:04;14.60;99.90
10155;DHT22;5118;48.570;7.916;2023-04-25T11:19:35;14.80;99.90
10155;DHT22;5118;48.570;7.916;2023-04-25T11:22:11;14.70;99.90
10155;DHT22;5118;48.570;7.916;2023-04-25T11:24:41;14.70;99.90
10155;DHT22;5118;48.570;7.916;2023-04-25T11:27:09;14.40;99.90
10155;DHT22;5118;48.570;7.916;2023-04-25T11:29:38;14.10;99.90
10155;DHT22;5118;48.570;7.916;2023-04-25T11:32:09;13.90;99.90
10155;DHT22;5118;48.570;7.916;2023-04-25T11:34:43;13.70;99.90
10155;DHT22;5118;48.570;7.916;2023-04-25T11:37:13;13.40;99.90
10155;DHT22;5118;48.570;7.916;2023-04-25T11:39:46;13.20;99.90
10155;DHT22;5118;48.570;7.916;2023-04-25T11:42:15;12.80;99.90
10155;DHT22;5118;48.570;7.916;2023-04-25T11:44:43;12.60;99.90
10155;DHT22;5118;48.570;7.916;2023-04-25T11:47:12;12.50;99.90
10155;DHT22;5118;48.570;7.916;2023-04-25T11:49:40;12.30;99.90
10155;DHT22;5118;48.570;7.916;2023-04-25T11:52:09;12.20;99.90
10155;DHT22;5118;48.570;7.916;2023-04-25T11:54:38;12.10;99.90
10155;DHT22;5118;48.570;7.916;2023-04-25T11:57:08;12.00;99.90
10155;DHT22;5118;48.570;7.916;2023-04-25T11:59:36;12.20;99.90
10155;DHT22;5118;48.570;7.916;2023-04-25T12:02:04;12.30;99.90
10155;DHT22;5118;48.570;7.916;2023-04-25T12:04:34;12.60;99.90
10155;DHT22;5118;48.570;7.916;2023-04-25T12:07:03;12.80;99.90
10155;DHT22;5118;48.570;7.916;2023-04-25T12:09:32;13.10;99.90
10155;DHT22;5118;48.570;7.916;2023-04-25T12:12:01;13.40;99.90
10155;DHT22;5118;48.570;7.916;2023-04-25T12:14:33;13.70;99.90
10155;DHT22;5118;48.570;7.916;2023-04-25T12:17:03;13.90;99.90
10155;DHT22;5118;48.570;7.916;2023-04-25T12:19:36;14.40;99.90
10155;DHT22;5118;48.570;7.916;2023-04-25T12:22:19;15.70;99.90
10155;DHT22;5118;48.570;7.916;2023-04-25T12:24:48;17.80;99.90
10155;DHT22;5118;48.570;7.916;2023-04-25T12:27:17;19.80;99.90
10155;DHT22;5118;48.570;7.916;2023-04-25T12:29:55;21.40;99.90
10155;DHT22;5118;48.570;7.916;2023-04-25T12:32:24;21.90;99.90
10155;DHT22;5118;48.570;7.916;2023-04-25T12:34:53;21.70;99.90
10155;DHT22;5118;48.570;7.916;2023-04-25T12:37:21;21.10;99.90
10155;DHT22;5118;48.570;7.916;2023-04-25T12:39:49;20.30;99.90
10155;DHT22;5118;48.570;7.916;2023-04-25T12:42:18;19.30;99.90
10155;DHT22;5118;48.570;7.916;2023-04-25T12:44:47;18.30;99.90
10155;DHT22;5118;48.570;7.916;2023-04-25T12:47:16;17.10;99.90
10155;DHT22;5118;48.570;7.916;2023-04-25T12:49:45;16.10;99.90
10155;DHT22;5118;48.570;7.916;2023-04-25T12:52:13;14.90;99.90
10155;DHT22;5118;48.570;7.916;2023-04-25T12:54:41;13.80;99.90
10155;DHT22;5118;48.570;7.916;2023-04-25T12:57:10;12.80;99.90
10155;DHT22;5118;48.570;7.916;2023-04-25T12:59:38;11.80;99.90
10155;DHT22;5118;48.570;7.916;2023-04-25T13:02:06;11.20;99.90
10155;DHT22;5118;48.570;7.916;2023-04-25T13:04:36;10.80;99.90
10155;DHT22;5118;48.570;7.916;2023-04-25T13:07:04;10.50;99.90
10155;DHT22;5118;48.570;7.916;2023-04-25T13:09:33;10.50;99.90
10155;DHT22;5118;48.570;7.916;2023-04-25T13:12:01;10.60;99.90
10155;DHT22;5118;48.570;7.916;2023-04-25T13:14:29;11.00;99.90
10155;DHT22;5118;48.570;7.916;2023-04-25T13:16:57;11.80;99.90
10155;DHT22;5118;48.570;7.916;2023-04-25T13:19:26;13.10;99.90
10155;DHT22;5118;48.570;7.916;2023-04-25T13:21:56;14.40;99.90
10155;DHT22;5118;48.570;7.916;2023-04-25T13:24:26;15.70;99.90
10155;DHT22;5118;48.570;7.916;2023-04-25T13:26:54;17.00;99.90
10155;DHT22;5118;48.570;7.916;2023-04-25T13:29:22;18.90;99.90
10155;DHT22;5118;48.570;7.916;2023-04-25T13:31:50;20.90;99.90
10155;DHT22;5118;48.570;7.916;2023-04-25T13:34:19;22.90;99.90
10155;DHT22;5118;48.570;7.916;2023-04-25T13:36:47;24.70;99.90
10155;DHT22;5118;48.570;7.916;2023-04-25T13:39:17;26.40;99.90
10155;DHT22;5118;48.570;7.916;2023-04-25T13:41:46;27.80;99.90
10155;DHT22;5118;48.570;7.916;2023-04-25T13:44:14;28.90;97.60
10155;DHT22;5118;48.570;7.916;2023-04-25T13:46:42;29.10;96.20
10155;DHT22;5118;48.570;7.916;2023-04-25T13:49:13;28.40;90.20
10155;DHT22;5118;48.570;7.916;2023-04-25T13:51:42;27.20;87.40
10155;DHT22;5118;48.570;7.916;2023-04-25T13:54:11;26.00;86.60
10155;DHT22;5118;48.570;7.916;2023-04-25T13:56:40;24.80;87.60
10155;DHT22;5118;48.570;7.916;2023-04-25T13:59:09;23.60;89.10
10155;DHT22;5118;48.570;7.916;2023-04-25T14:01:38;22.50;90.10
10155;DHT22;5118;48.570;7.916;2023-04-25T14:04:06;21.60;91.10
10155;DHT22;5118;48.570;7.916;2023-04-25T14:06:35;20.90;92.00
10155;DHT22;5118;48.570;7.916;2023-04-25T14:09:04;20.30;93.30
10155;DHT22;5118;48.570;7.916;2023-04-25T14:11:33;19.80;93.00
10155;DHT22;5118;48.570;7.916;2023-04-25T14:14:04;19.50;93.80
10155;DHT22;5118;48.570;7.916;2023-04-25T14:16:33;19.30;94.70
10155;DHT22;5118;48.570;7.916;2023-04-25T14:19:02;19.20;94.60
10155;DHT22;5118;48.570;7.916;2023-04-25T14:21:30;19.20;94.90
10155;DHT22;5118;48.570;7.916;2023-04-25T14:23:59;19.70;95.70
10155;DHT22;5118;48.570;7.916;2023-04-25T14:26:28;20.70;96.00
10155;DHT22;5118;48.570;7.916;2023-04-25T14:28:57;22.30;95.50
10155;DHT22;5118;48.570;7.916;2023-04-25T14:31:26;24.20;94.80
10155;DHT22;5118;48.570;7.916;2023-04-25T14:33:55;25.70;91.90
10155;DHT22;5118;48.570;7.916;2023-04-25T14:36:26;26.50;86.00
10155;DHT22;5118;48.570;7.916;2023-04-25T14:38:54;26.50;79.50
10155;DHT22;5118;48.570;7.916;2023-04-25T14:41:23;26.30;75.20
10155;DHT22;5118;48.570;7.916;2023-04-25T14:43:52;26.80;74.80
10155;DHT22;5118;48.570;7.916;2023-04-25T14:46:21;27.90;73.10
10155;DHT22;5118;48.570;7.916;2023-04-25T14:48:51;29.00;68.50
10155;DHT22;5118;48.570;7.916;2023-04-25T14:51:20;30.00;67.20
10155;DHT22;5118;48.570;7.916;2023-04-25T14:53:48;30.30;60.40
10155;DHT22;5118;48.570;7.916;2023-04-25T14:56:18;30.00;56.00
10155;DHT22;5118;48.570;7.916;2023-04-25T14:58:46;28.80;49.90
10155;DHT22;5118;48.570;7.916;2023-04-25T15:01:15;27.60;50.50
10155;DHT22;5118;48.570;7.916;2023-04-25T15:03:43;26.70;52.00
10155;DHT22;5118;48.570;7.916;2023-04-25T15:06:14;26.90;54.90
10155;DHT22;5118;48.570;7.916;2023-04-25T15:08:42;27.70;54.70
10155;DHT22;5118;48.570;7.916;2023-04-25T15:11:10;28.80;53.80
10155;DHT22;5118;48.570;7.916;2023-04-25T15:13:39;29.90;52.00
10155;DHT22;5118;48.570;7.916;2023-04-25T15:16:09;30.60;51.20
10155;DHT22;5118;48.570;7.916;2023-04-25T15:18:38;30.90;49.20
10155;DHT22;5118;48.570;7.916;2023-04-25T15:21:07;30.60;47.40
10155;DHT22;5118;48.570;7.916;2023-04-25T15:23:37;29.90;46.90
10155;DHT22;5118;48.570;7.916;2023-04-25T15:26:06;29.40;46.30
10155;DHT22;5118;48.570;7.916;2023-04-25T15:28:34;28.60;45.80
10155;DHT22;5118;48.570;7.916;2023-04-25T15:31:05;27.70;45.70
10155;DHT22;5118;48.570;7.916;2023-04-25T15:33:33;26.70;46.50
10155;DHT22;5118;48.570;7.916;2023-04-25T15:36:02;25.50;47.30
10155;DHT22;5118;48.570;7.916;2023-04-25T15:38:31;24.10;47.60
10155;DHT22;5118;48.570;7.916;2023-04-25T15:41:00;22.80;49.10
10155;DHT22;5118;48.570;7.916;2023-04-25T15:43:30;21.60;50.50
10155;DHT22;5118;48.570;7.916;2023-04-25T15:45:59;20.70;52.20
10155;DHT22;5118;48.570;7.916;2023-04-25T15:48:27;19.80;54.10
10155;DHT22;5118;48.570;7.916;2023-04-25T15:50:55;19.00;55.00
10155;DHT22;5118;48.570;7.916;2023-04-25T15:53:23;18.10;57.00
10155;DHT22;5118;48.570;7.916;2023-04-25T15:55:52;17.30;58.70
10155;DHT22;5118;48.570;7.916;2023-04-25T15:58:22;16.70;60.30
10155;DHT22;5118;48.570;7.916;2023-04-25T16:00:51;16.10;62.30
10155;DHT22;5118;48.570;7.916;2023-04-25T16:03:19;15.60;62.90
10155;DHT22;5118;48.570;7.916;2023-04-25T16:05:48;15.10;65.10
10155;DHT22;5118;48.570;7.916;2023-04-25T16:08:17;14.80;66.80
10155;DHT22;5118;48.570;7.916;2023-04-25T16:10:45;14.50;68.60
10155;DHT22;5118;48.570;7.916;2023-04-25T16:13:14;14.20;71.30
10155;DHT22;5118;48.570;7.916;2023-04-25T16:15:44;14.00;75.30
10155;DHT22;5118;48.570;7.916;2023-04-25T16:18:12;13.70;78.30
10155;DHT22;5118;48.570;7.916;2023-04-25T16:20:41;13.40;80.40
10155;DHT22;5118;48.570;7.916;2023-04-25T16:23:09;13.20;82.00
10155;DHT22;5118;48.570;7.916;2023-04-25T16:25:37;13.00;85.40